createdAt,value
2019-04-12T00:02:03.474Z,4.60
2019-04-12T00:04:32.827Z,4.60
2019-04-12T00:07:03.087Z,4.60
2019-04-12T00:09:33.262Z,4.50
2019-04-12T00:12:02.824Z,4.50
2019-04-12T00:14:32.098Z,4.50
2019-04-12T00:17:01.724Z,4.50
2019-04-12T00:19:32.133Z,4.50
2019-04-12T00:22:01.706Z,4.50
2019-04-12T00:24:34.925Z,4.50
2019-04-12T00:27:03.296Z,4.50
2019-04-12T00:29:32.840Z,4.50
2019-04-12T00:32:02.133Z,4.50
2019-04-12T00:34:31.417Z,4.50
2019-04-12T00:37:00.700Z,4.50
2019-04-12T00:39:30.675Z,4.50
2019-04-12T00:42:02.629Z,4.40
2019-04-12T00:44:33.536Z,4.50
2019-04-12T00:47:03.837Z,4.50
2019-04-12T00:49:33.388Z,4.50
2019-04-12T00:52:03.005Z,4.50
2019-04-12T00:54:32.286Z,4.60
2019-04-12T00:57:01.645Z,4.70
2019-04-12T00:59:31.206Z,4.70
2019-04-12T01:02:18.826Z,4.70
2019-04-12T01:04:50.084Z,4.70
2019-04-12T01:07:20.565Z,4.70
2019-04-12T01:09:52.806Z,4.70
2019-04-12T01:12:21.474Z,4.70
2019-04-12T01:14:51.082Z,4.70
2019-04-12T01:17:20.372Z,4.60
2019-04-12T01:19:49.642Z,4.70
2019-04-12T01:22:19.770Z,4.70
2019-04-12T01:24:57.081Z,4.60
2019-04-12T01:27:20.346Z,4.50
2019-04-12T01:29:49.960Z,4.50
2019-04-12T01:32:19.244Z,4.50
2019-04-12T01:34:48.860Z,4.50
2019-04-12T01:37:18.169Z,4.40
2019-04-12T01:39:47.453Z,4.40
2019-04-12T01:42:17.733Z,4.40
2019-04-12T01:44:47.296Z,4.40
2019-04-12T01:47:16.918Z,4.40
2019-04-12T01:49:46.216Z,4.30
2019-04-12T01:52:15.817Z,4.30
2019-04-12T01:54:45.433Z,4.30
2019-04-12T01:57:15.023Z,4.20
2019-04-12T01:59:44.321Z,4.20
2019-04-12T02:02:13.946Z,4.20
2019-04-12T02:04:43.234Z,4.20
2019-04-12T02:07:12.533Z,4.20
2019-04-12T02:09:41.810Z,4.20
2019-04-12T02:12:12.141Z,4.30
2019-04-12T02:14:41.677Z,4.30
2019-04-12T02:17:10.962Z,4.30
2019-04-12T02:19:40.253Z,4.30
2019-04-12T02:22:10.600Z,4.30
2019-04-12T02:24:40.112Z,4.40
2019-04-12T02:27:10.318Z,4.40
2019-04-12T02:29:39.937Z,4.40
2019-04-12T02:32:27.495Z,4.40
2019-04-12T02:34:58.416Z,4.40
2019-04-12T02:37:27.700Z,4.30
2019-04-12T02:39:58.334Z,4.40
2019-04-12T02:42:29.536Z,4.40
2019-04-12T02:45:00.662Z,4.40
2019-04-12T02:47:34.494Z,4.40
2019-04-12T02:50:23.598Z,4.40
2019-04-12T02:52:56.270Z,4.40
2019-04-12T02:55:38.536Z,4.30
2019-04-12T02:58:16.277Z,4.30
2019-04-12T03:00:50.569Z,4.30
2019-04-12T03:03:21.465Z,4.40
2019-04-12T03:05:50.825Z,4.40
2019-04-12T03:08:20.446Z,4.40
2019-04-12T03:10:52.513Z,4.40
2019-04-12T03:13:23.832Z,4.40
2019-04-12T03:15:54.633Z,4.40
2019-04-12T03:18:24.549Z,4.40
2019-04-12T03:20:54.629Z,4.40
2019-04-12T03:23:24.340Z,4.40
2019-04-12T03:25:57.911Z,4.40
2019-04-12T03:28:25.215Z,4.40
2019-04-12T03:30:54.686Z,4.40
2019-04-12T03:33:24.620Z,4.40
2019-04-12T03:35:54.328Z,4.40
2019-04-12T03:38:23.690Z,4.40
2019-04-12T03:40:53.746Z,4.40
2019-04-12T03:43:23.470Z,4.40
2019-04-12T03:45:54.196Z,4.50
2019-04-12T03:48:24.037Z,4.50
2019-04-12T03:50:53.933Z,4.50
2019-04-12T03:53:24.049Z,4.40
2019-04-12T03:56:07.392Z,4.40
2019-04-12T03:58:25.005Z,4.40
2019-04-12T04:00:54.445Z,4.30
2019-04-12T04:03:24.218Z,4.30
2019-04-12T04:05:53.859Z,4.30
2019-04-12T04:08:23.302Z,4.30
2019-04-12T04:10:53.181Z,4.30
2019-04-12T04:13:23.309Z,4.20
2019-04-12T04:15:54.910Z,4.20
2019-04-12T04:18:27.096Z,4.20
2019-04-12T04:21:13.535Z,4.30
2019-04-12T04:23:47.632Z,4.20
2019-04-12T04:26:35.829Z,4.20
2019-04-12T04:29:14.057Z,4.30
2019-04-12T04:31:45.673Z,4.20
2019-04-12T04:34:14.960Z,4.20
2019-04-12T04:36:44.415Z,4.20
2019-04-12T04:39:13.841Z,4.20
2019-04-12T04:41:43.454Z,4.20
2019-04-12T04:44:13.136Z,4.30
2019-04-12T04:46:42.854Z,4.20
2019-04-12T04:49:12.127Z,4.20
2019-04-12T04:51:41.409Z,4.20
2019-04-12T04:54:10.760Z,4.20
2019-04-12T04:56:40.036Z,4.20
2019-04-12T04:59:09.486Z,4.20
2019-04-12T05:01:38.949Z,4.20
2019-04-12T05:04:08.483Z,4.20
2019-04-12T05:06:37.819Z,4.20
2019-04-12T05:09:08.172Z,4.30
2019-04-12T05:11:37.888Z,4.30
2019-04-12T05:14:07.822Z,4.30
2019-04-12T05:16:37.536Z,4.40
2019-04-12T05:19:06.905Z,4.30
2019-04-12T05:21:36.743Z,4.30
2019-04-12T05:24:06.195Z,4.40
2019-04-12T05:26:45.111Z,4.40
2019-04-12T05:29:06.805Z,4.40
2019-04-12T05:31:36.259Z,4.40
2019-04-12T05:34:05.712Z,4.40
2019-04-12T05:36:36.136Z,4.40
2019-04-12T05:39:07.173Z,4.40
2019-04-12T05:41:36.440Z,4.40
2019-04-12T05:44:07.720Z,4.30
2019-04-12T05:46:45.022Z,4.20
2019-04-12T05:49:32.132Z,4.30
2019-04-12T05:52:01.471Z,4.30
2019-04-12T05:54:32.793Z,4.30
2019-04-12T05:57:02.015Z,4.30
2019-04-12T05:59:38.861Z,4.30
2019-04-12T06:02:27.024Z,4.40
2019-04-12T06:04:58.911Z,4.40
2019-04-12T06:07:27.465Z,4.40
2019-04-12T06:09:56.740Z,4.40
2019-04-12T06:12:26.668Z,4.40
2019-04-12T06:14:56.189Z,4.30
2019-04-12T06:17:26.313Z,4.30
2019-04-12T06:20:15.353Z,4.30
2019-04-12T06:22:44.925Z,4.40
2019-04-12T06:25:15.925Z,4.40
2019-04-12T06:27:52.913Z,4.30
2019-04-12T06:30:24.177Z,4.30
2019-04-12T06:32:53.447Z,4.30
2019-04-12T06:35:23.032Z,4.40
2019-04-12T06:37:52.644Z,4.40
2019-04-12T06:40:22.248Z,4.50
2019-04-12T06:42:51.605Z,4.50
2019-04-12T06:45:21.061Z,4.50
2019-04-12T06:47:50.348Z,4.50
2019-04-12T06:50:30.459Z,4.40
2019-04-12T06:53:00.028Z,4.50
2019-04-12T06:55:31.265Z,4.60
2019-04-12T06:58:00.556Z,4.60
2019-04-12T07:00:34.000Z,4.60
2019-04-12T07:03:05.769Z,4.60
2019-04-12T07:05:35.334Z,4.70
2019-04-12T07:08:04.888Z,4.70
2019-04-12T07:10:34.312Z,4.80
2019-04-12T07:13:03.588Z,4.90
2019-04-12T07:15:32.868Z,4.90
2019-04-12T07:18:02.157Z,4.90
2019-04-12T07:20:31.749Z,4.90
2019-04-12T07:23:01.213Z,5.00
2019-04-12T07:25:30.482Z,5.00
2019-04-12T07:27:59.777Z,5.10
2019-04-12T07:30:29.067Z,5.10
2019-04-12T07:32:58.362Z,5.20
2019-04-12T07:35:28.712Z,5.20
2019-04-12T07:37:58.011Z,5.10
2019-04-12T07:40:27.301Z,5.00
2019-04-12T07:42:56.596Z,5.00
2019-04-12T07:45:26.111Z,5.00
2019-04-12T07:47:55.467Z,5.10
2019-04-12T07:50:28.862Z,5.70
2019-04-12T07:52:58.143Z,5.50
2019-04-12T07:55:36.125Z,5.40
2019-04-12T07:58:13.274Z,5.50
2019-04-12T08:00:46.904Z,5.40
2019-04-12T08:03:17.835Z,5.40
2019-04-12T08:06:00.732Z,5.40
2019-04-12T08:08:30.361Z,5.40
2019-04-12T08:10:59.636Z,5.30
2019-04-12T08:13:28.938Z,5.40
2019-04-12T08:15:58.215Z,5.40
2019-04-12T08:18:27.601Z,5.60
2019-04-12T08:20:56.893Z,5.60
2019-04-12T08:23:26.183Z,5.70
2019-04-12T08:25:55.540Z,5.80
2019-04-12T08:28:24.817Z,5.80
2019-04-12T08:30:55.087Z,5.80
2019-04-12T08:33:24.680Z,5.80
2019-04-12T08:35:56.729Z,5.80
2019-04-12T08:38:25.281Z,5.70
2019-04-12T08:40:54.573Z,5.60
2019-04-12T08:43:24.141Z,5.70
2019-04-12T08:45:53.426Z,5.60
2019-04-12T08:48:22.717Z,5.60
2019-04-12T08:50:52.006Z,5.60
2019-04-12T08:53:21.397Z,5.60
2019-04-12T08:55:50.758Z,5.60
2019-04-12T08:58:20.363Z,5.60
2019-04-12T09:00:49.656Z,5.60
2019-04-12T09:03:19.264Z,5.60
2019-04-12T09:05:48.577Z,5.60
2019-04-12T09:08:17.943Z,5.60
2019-04-12T09:10:47.410Z,5.60
2019-04-12T09:13:17.185Z,5.70
2019-04-12T09:15:46.651Z,5.80
2019-04-12T09:18:16.215Z,6.00
2019-04-12T09:20:50.144Z,6.00
2019-04-12T09:23:27.502Z,6.00
2019-04-12T09:26:01.004Z,6.00
2019-04-12T09:28:30.652Z,6.00
2019-04-12T09:31:00.069Z,6.00
2019-04-12T09:33:29.820Z,6.00
2019-04-12T09:35:59.120Z,5.90
2019-04-12T09:38:28.395Z,5.90
2019-04-12T09:40:57.701Z,5.90
2019-04-12T09:43:27.233Z,6.00
2019-04-12T09:45:56.520Z,5.90
2019-04-12T09:48:25.800Z,6.00
2019-04-12T09:50:55.091Z,6.10
2019-04-12T09:53:24.612Z,6.00
2019-04-12T09:55:54.249Z,5.90
2019-04-12T09:58:23.537Z,5.80
2019-04-12T10:00:53.151Z,6.00
2019-04-12T10:03:22.761Z,6.00
2019-04-12T10:05:52.056Z,5.90
2019-04-12T10:08:21.333Z,5.90
2019-04-12T10:10:51.000Z,5.90
2019-04-12T10:13:20.377Z,5.90
2019-04-12T10:15:49.672Z,6.00
2019-04-12T10:18:18.972Z,5.90
2019-04-12T10:20:48.575Z,6.00
2019-04-12T10:23:17.868Z,6.20
2019-04-12T10:25:47.505Z,6.30
2019-04-12T10:28:16.795Z,6.90
2019-04-12T10:30:46.075Z,7.40
2019-04-12T10:33:15.620Z,7.00
2019-04-12T10:35:44.912Z,6.80
2019-04-12T10:38:14.282Z,6.60
2019-04-12T10:40:43.567Z,6.50
2019-04-12T10:43:13.115Z,6.50
2019-04-12T10:45:44.038Z,6.40
2019-04-12T10:48:24.072Z,6.20
2019-04-12T10:50:57.705Z,6.20
2019-04-12T10:53:37.772Z,6.40
2019-04-12T10:56:07.053Z,6.30
2019-04-12T10:58:36.665Z,6.20
2019-04-12T11:01:07.720Z,6.10
2019-04-12T11:03:37.017Z,5.90
2019-04-12T11:06:06.295Z,5.70
2019-04-12T11:08:35.916Z,5.60
2019-04-12T11:11:07.574Z,5.70
2019-04-12T11:13:37.043Z,5.80
2019-04-12T11:16:06.327Z,5.90
2019-04-12T11:18:35.891Z,5.90
2019-04-12T11:21:05.179Z,5.90
2019-04-12T11:23:34.473Z,6.00
2019-04-12T11:26:03.758Z,5.90
2019-04-12T11:28:33.056Z,5.90
2019-04-12T11:31:02.327Z,5.90
2019-04-12T11:33:31.619Z,5.80
2019-04-12T11:36:00.901Z,5.80
2019-04-12T11:38:30.502Z,5.80
2019-04-12T11:40:59.793Z,5.80
2019-04-12T11:43:29.089Z,5.80
2019-04-12T11:45:58.367Z,6.00
2019-04-12T11:48:27.665Z,6.00
2019-04-12T11:50:57.321Z,6.20
2019-04-12T11:53:26.662Z,6.40
2019-04-12T11:55:56.217Z,6.50
2019-04-12T11:58:41.244Z,6.50
2019-04-12T12:01:00.823Z,6.60
2019-04-12T12:03:31.747Z,6.70
2019-04-12T12:06:09.193Z,6.90
2019-04-12T12:08:43.029Z,7.10
2019-04-12T12:11:20.092Z,7.20
2019-04-12T12:14:06.281Z,7.20
2019-04-12T12:16:37.524Z,8.10
2019-04-12T12:19:11.747Z,8.00
2019-04-12T12:21:41.028Z,7.90
2019-04-12T12:24:10.337Z,7.80
2019-04-12T12:26:39.948Z,7.80
2019-04-12T12:29:09.477Z,7.50
2019-04-12T12:31:38.769Z,7.20
2019-04-12T12:34:08.057Z,7.20
2019-04-12T12:36:37.415Z,7.20
2019-04-12T12:39:08.301Z,7.10
2019-04-12T12:41:37.660Z,6.90
2019-04-12T12:44:06.948Z,6.80
2019-04-12T12:46:36.508Z,6.80
2019-04-12T12:49:06.115Z,6.80
2019-04-12T12:51:35.409Z,6.70
2019-04-12T12:54:05.029Z,6.70
2019-04-12T12:56:34.320Z,6.70
2019-04-12T12:59:03.932Z,6.70
2019-04-12T13:01:33.224Z,6.80
2019-04-12T13:04:02.547Z,6.70
2019-04-12T13:06:31.892Z,6.70
2019-04-12T13:09:01.444Z,6.50
2019-04-12T13:11:32.360Z,6.30
2019-04-12T13:14:01.644Z,6.30
2019-04-12T13:16:31.500Z,6.30
2019-04-12T13:19:00.779Z,6.20
2019-04-12T13:21:30.405Z,6.10
2019-04-12T13:23:59.684Z,6.00
2019-04-12T13:26:29.313Z,6.00
2019-04-12T13:28:58.832Z,6.10
2019-04-12T13:31:30.492Z,6.10
2019-04-12T13:34:13.507Z,6.10
2019-04-12T13:36:44.447Z,6.10
2019-04-12T13:39:32.179Z,6.00
2019-04-12T13:42:01.941Z,6.00
2019-04-12T13:44:31.217Z,6.00
2019-04-12T13:47:00.584Z,6.00
2019-04-12T13:49:29.865Z,5.90
2019-04-12T13:51:59.164Z,5.90
2019-04-12T13:54:28.440Z,6.00
2019-04-12T13:56:57.732Z,6.10
2019-04-12T13:59:27.297Z,6.20
2019-04-12T14:01:56.916Z,6.30
2019-04-12T14:04:26.190Z,6.30
2019-04-12T14:06:55.757Z,6.30
2019-04-12T14:09:25.052Z,6.20
2019-04-12T14:11:54.624Z,6.30
2019-04-12T14:14:23.904Z,6.30
2019-04-12T14:16:53.202Z,6.30
2019-04-12T14:19:22.484Z,6.30
2019-04-12T14:21:52.141Z,6.20
2019-04-12T14:24:21.421Z,6.30
2019-04-12T14:26:50.720Z,6.40
2019-04-12T14:29:20.340Z,6.50
2019-04-12T14:31:54.207Z,6.50
2019-04-12T14:34:30.942Z,6.50
2019-04-12T14:37:01.871Z,6.40
2019-04-12T14:39:31.479Z,6.30
2019-04-12T14:42:01.080Z,6.20
2019-04-12T14:44:47.377Z,6.20
2019-04-12T14:47:27.171Z,6.30
2019-04-12T14:49:56.463Z,6.30
2019-04-12T14:52:26.033Z,6.30
2019-04-12T14:54:55.314Z,6.20
2019-04-12T14:57:24.606Z,6.20
2019-04-12T14:59:53.879Z,6.20
2019-04-12T15:02:24.823Z,6.20
2019-04-12T15:04:54.379Z,6.20
2019-04-12T15:07:23.660Z,6.00
2019-04-12T15:09:52.952Z,6.00
2019-04-12T15:12:22.486Z,5.90
2019-04-12T15:14:51.767Z,5.90
2019-04-12T15:17:21.064Z,6.00
2019-04-12T15:19:50.696Z,6.10
2019-04-12T15:22:19.984Z,6.00
2019-04-12T15:24:49.263Z,6.00
2019-04-12T15:27:19.626Z,6.00
2019-04-12T15:29:48.908Z,6.00
2019-04-12T15:32:18.532Z,6.00
2019-04-12T15:34:48.141Z,6.10
2019-04-12T15:37:17.742Z,6.20
2019-04-12T15:39:47.070Z,6.30
2019-04-12T15:42:16.337Z,6.40
2019-04-12T15:44:45.627Z,6.40
2019-04-12T15:47:14.906Z,6.40
2019-04-12T15:49:44.211Z,6.50
2019-04-12T15:52:13.492Z,6.50
2019-04-12T15:54:43.067Z,6.40
2019-04-12T15:57:12.347Z,6.20
2019-04-12T15:59:41.649Z,6.00
2019-04-12T16:02:11.268Z,5.90
2019-04-12T16:04:40.640Z,5.80
2019-04-12T16:07:10.692Z,5.60
2019-04-12T16:09:40.918Z,5.70
2019-04-12T16:12:25.572Z,5.60
2019-04-12T16:15:06.668Z,5.60
2019-04-12T16:17:57.275Z,5.60
2019-04-12T16:20:26.857Z,5.40
2019-04-12T16:22:56.141Z,5.40
2019-04-12T16:25:25.440Z,5.30
2019-04-12T16:28:02.332Z,5.20
2019-04-12T16:30:48.289Z,5.20
2019-04-12T16:33:37.358Z,5.20
2019-04-12T16:36:23.515Z,5.20
2019-04-12T16:38:52.904Z,5.10
2019-04-12T16:41:22.500Z,5.10
2019-04-12T16:43:51.794Z,5.00
2019-04-12T16:46:33.641Z,5.00
2019-04-12T16:48:52.082Z,4.90
2019-04-12T16:51:21.375Z,4.90
2019-04-12T16:53:50.643Z,4.90
2019-04-12T16:56:20.252Z,5.00
2019-04-12T16:58:49.539Z,5.00
2019-04-12T17:01:19.164Z,5.00
2019-04-12T17:03:48.454Z,5.00
2019-04-12T17:06:17.744Z,5.00
2019-04-12T17:08:47.040Z,5.00
2019-04-12T17:11:16.673Z,5.10
2019-04-12T17:13:45.965Z,5.00
2019-04-12T17:16:15.586Z,5.00
2019-04-12T17:18:45.220Z,5.00
2019-04-12T17:21:14.554Z,5.00
2019-04-12T17:23:43.849Z,5.00
2019-04-12T17:26:13.404Z,5.00
2019-04-12T17:28:42.707Z,5.00
2019-04-12T17:31:12.049Z,5.00
2019-04-12T17:33:41.351Z,5.10
2019-04-12T17:36:10.911Z,5.10
2019-04-12T17:38:40.269Z,5.10
2019-04-12T17:41:09.552Z,5.10
2019-04-12T17:43:39.120Z,5.00
2019-04-12T17:46:08.739Z,5.00
2019-04-12T17:48:45.440Z,5.00
2019-04-12T17:51:25.231Z,5.00
2019-04-12T17:53:58.852Z,5.00
2019-04-12T17:56:28.135Z,5.00
2019-04-12T17:58:57.425Z,5.00
2019-04-12T18:01:40.157Z,5.00
2019-04-12T18:04:13.225Z,5.00
2019-04-12T18:06:42.508Z,5.00
2019-04-12T18:09:11.797Z,5.00
2019-04-12T18:11:42.793Z,5.00
2019-04-12T18:14:12.075Z,5.00
2019-04-12T18:16:41.360Z,5.10
2019-04-12T18:19:10.904Z,5.10
2019-04-12T18:21:40.520Z,5.00
2019-04-12T18:24:09.815Z,5.00
2019-04-12T18:26:40.453Z,4.90
2019-04-12T18:29:10.811Z,4.90
2019-04-12T18:31:40.161Z,4.90
2019-04-12T18:34:09.452Z,4.80
2019-04-12T18:36:40.112Z,4.80
2019-04-12T18:39:11.009Z,4.70
2019-04-12T18:41:40.552Z,4.70
2019-04-12T18:44:10.161Z,4.60
2019-04-12T18:46:39.768Z,4.70
2019-04-12T18:49:09.101Z,4.70
2019-04-12T18:51:38.413Z,4.70
2019-04-12T18:54:07.704Z,4.70
2019-04-12T18:56:36.979Z,4.70
2019-04-12T18:59:06.581Z,4.70
2019-04-12T19:01:35.968Z,4.70
2019-04-12T19:04:05.266Z,4.60
2019-04-12T19:06:34.606Z,4.60
2019-04-12T19:09:06.443Z,4.60
2019-04-12T19:11:37.517Z,4.60
2019-04-12T19:14:07.206Z,4.50
2019-04-12T19:16:37.621Z,4.50
2019-04-12T19:19:06.980Z,4.50
2019-04-12T19:21:36.655Z,4.50
2019-04-12T19:24:06.402Z,4.40
2019-04-12T19:26:35.819Z,4.40
2019-04-12T19:29:05.184Z,4.40
2019-04-12T19:31:39.304Z,4.30
2019-04-12T19:34:10.305Z,4.30
2019-04-12T19:36:41.240Z,4.30
2019-04-12T19:39:12.243Z,4.30
2019-04-12T19:41:42.976Z,4.30
2019-04-12T19:44:12.304Z,4.20
2019-04-12T19:46:41.933Z,4.20
2019-04-12T19:49:11.203Z,4.20
2019-04-12T19:51:40.646Z,4.20
2019-04-12T19:54:10.874Z,4.20
2019-04-12T19:56:40.159Z,4.10
2019-04-12T19:59:09.445Z,4.20
2019-04-12T20:01:38.736Z,4.20
2019-04-12T20:04:08.274Z,4.20
2019-04-12T20:06:37.876Z,4.20
2019-04-12T20:09:08.898Z,4.20
2019-04-12T20:11:38.740Z,4.20
2019-04-12T20:14:08.024Z,4.20
2019-04-12T20:16:37.321Z,4.20
2019-04-12T20:19:06.613Z,4.20
2019-04-12T20:21:35.908Z,4.20
2019-04-12T20:24:05.440Z,4.20
2019-04-12T20:26:34.731Z,4.20
2019-04-12T20:29:04.290Z,4.10
2019-04-12T20:31:33.567Z,4.00
2019-04-12T20:34:03.992Z,4.00
2019-04-12T20:36:33.311Z,3.90
2019-04-12T20:39:03.091Z,3.90
2019-04-12T20:41:33.928Z,3.90
2019-04-12T20:44:03.292Z,3.90
2019-04-12T20:46:32.567Z,3.80
2019-04-12T20:49:02.090Z,3.90
2019-04-12T20:51:31.640Z,3.80
2019-04-12T20:54:00.945Z,3.90
2019-04-12T20:56:32.145Z,3.90
2019-04-12T20:59:01.551Z,3.90
2019-04-12T21:01:30.862Z,3.90
2019-04-12T21:04:00.143Z,4.00
2019-04-12T21:06:29.447Z,4.00
2019-04-12T21:08:58.754Z,4.10
2019-04-12T21:11:28.090Z,4.00
2019-04-12T21:13:57.704Z,4.00
2019-04-12T21:16:27.153Z,4.10
2019-04-12T21:18:56.529Z,4.10
2019-04-12T21:21:26.221Z,4.10
2019-04-12T21:23:55.520Z,4.10
2019-04-12T21:26:24.817Z,4.10
2019-04-12T21:28:54.120Z,4.10
2019-04-12T21:31:23.737Z,4.10
2019-04-12T21:33:53.023Z,4.10
2019-04-12T21:36:22.297Z,4.10
2019-04-12T21:38:51.588Z,4.00
2019-04-12T21:41:20.896Z,3.90
2019-04-12T21:43:50.164Z,3.90
2019-04-12T21:46:20.249Z,3.80
2019-04-12T21:48:49.712Z,3.80
2019-04-12T21:51:19.964Z,3.70
2019-04-12T21:53:50.610Z,3.60
2019-04-12T21:56:19.928Z,3.60
2019-04-12T21:58:49.525Z,3.60
2019-04-12T22:01:20.016Z,3.60
2019-04-12T22:03:50.023Z,3.60
2019-04-12T22:06:19.304Z,3.60
2019-04-12T22:08:48.597Z,3.60
2019-04-12T22:11:17.908Z,3.60
2019-04-12T22:13:47.679Z,3.60
2019-04-12T22:16:17.026Z,3.60
2019-04-12T22:18:46.540Z,3.60
2019-04-12T22:21:15.821Z,3.60
2019-04-12T22:23:45.107Z,3.60
2019-04-12T22:26:14.379Z,3.50
2019-04-12T22:28:43.668Z,3.50
2019-04-12T22:31:13.201Z,3.50
2019-04-12T22:33:52.707Z,3.50
2019-04-12T22:36:13.489Z,3.60
2019-04-12T22:38:42.795Z,3.60
2019-04-12T22:41:12.352Z,3.60
2019-04-12T22:43:41.637Z,3.60
2019-04-12T22:46:10.928Z,3.60
2019-04-12T22:48:40.204Z,3.60
2019-04-12T22:51:09.491Z,3.60
2019-04-12T22:53:39.057Z,3.60
2019-04-12T22:56:08.664Z,3.60
2019-04-12T22:58:37.940Z,3.70
2019-04-12T23:01:07.232Z,3.60
2019-04-12T23:03:36.772Z,3.60
2019-04-12T23:06:06.055Z,3.60
2019-04-12T23:08:35.572Z,3.60
2019-04-12T23:11:04.859Z,3.60
2019-04-12T23:13:34.136Z,3.50
2019-04-12T23:16:03.424Z,3.50
2019-04-12T23:18:33.092Z,3.40
2019-04-12T23:21:02.391Z,3.40
2019-04-12T23:23:32.005Z,3.40
2019-04-12T23:26:01.296Z,3.40
2019-04-12T23:28:30.588Z,3.30
2019-04-12T23:31:01.515Z,3.30
2019-04-12T23:33:32.440Z,3.20
2019-04-12T23:36:04.127Z,3.10
2019-04-12T23:38:32.719Z,3.00
2019-04-12T23:41:02.329Z,2.90
2019-04-12T23:43:31.936Z,2.80
2019-04-12T23:46:01.223Z,2.80
2019-04-12T23:48:30.512Z,2.80
2019-04-12T23:50:59.809Z,2.80
2019-04-12T23:53:29.092Z,2.90
2019-04-12T23:55:58.749Z,2.90
2019-04-12T23:58:28.037Z,3.00
